createdAt,value
2018-08-22T06:03:36.151Z,0.55
2018-08-22T06:04:11.480Z,0.00
2018-08-22T06:04:46.789Z,2.88
2018-08-22T06:05:22.070Z,1.20
2018-08-22T06:05:57.500Z,2.24
2018-08-22T06:06:33.019Z,0.24
2018-08-22T06:07:08.323Z,0.88
2018-08-22T06:07:43.676Z,0.96
2018-08-22T06:08:18.860Z,1.84
2018-08-22T06:08:54.285Z,0.16
2018-08-22T06:09:29.811Z,0.00
2018-08-22T06:10:05.396Z,0.00
2018-08-22T06:10:40.989Z,0.00
2018-08-22T06:11:16.286Z,0.32
2018-08-22T06:11:51.485Z,1.04
2018-08-22T06:12:26.928Z,0.00
2018-08-22T06:13:02.340Z,0.00
2018-08-22T06:13:37.563Z,0.08
2018-08-22T06:14:12.746Z,0.08
2018-08-22T06:14:48.085Z,0.08
2018-08-22T06:15:23.374Z,0.00
2018-08-22T06:16:00.217Z,0.16
2018-08-22T06:16:35.415Z,0.56
2018-08-22T06:17:10.733Z,1.44
2018-08-22T06:17:46.245Z,1.20
2018-08-22T06:18:21.528Z,0.88
2018-08-22T06:18:56.738Z,0.72
2018-08-22T06:19:32.343Z,0.08
2018-08-22T06:20:07.427Z,0.08
2018-08-22T06:20:42.654Z,0.00
2018-08-22T06:21:17.885Z,0.24
2018-08-22T06:21:52.918Z,0.40
2018-08-22T06:22:28.148Z,0.00
2018-08-22T06:23:03.452Z,2.00
2018-08-22T06:23:39.003Z,0.08
2018-08-22T06:24:14.352Z,1.20
2018-08-22T06:24:49.588Z,0.72
2018-08-22T06:25:24.863Z,0.00
2018-08-22T06:26:00.025Z,0.08
2018-08-22T06:26:35.173Z,0.72
2018-08-22T06:27:10.564Z,1.36
2018-08-22T06:27:45.808Z,0.08
2018-08-22T06:28:21.220Z,0.00
2018-08-22T06:28:56.660Z,0.00
2018-08-22T06:29:32.195Z,0.00
2018-08-22T06:30:07.201Z,0.08
2018-08-22T06:30:42.332Z,0.08
2018-08-22T06:31:17.533Z,0.00
2018-08-22T06:31:53.142Z,0.00
2018-08-22T06:32:28.802Z,2.32
2018-08-22T06:33:04.633Z,2.16
2018-08-22T06:33:40.265Z,0.16
2018-08-22T06:34:15.643Z,0.00
2018-08-22T06:34:50.653Z,0.32
2018-08-22T06:35:26.495Z,0.08
2018-08-22T06:36:02.091Z,0.00
2018-08-22T06:36:37.329Z,0.24
2018-08-22T06:37:12.545Z,1.92
2018-08-22T06:37:48.180Z,2.64
2018-08-22T06:38:23.467Z,3.92
2018-08-22T06:38:58.586Z,1.04
2018-08-22T06:39:33.935Z,1.60
2018-08-22T06:40:09.337Z,0.64
2018-08-22T06:40:44.851Z,0.00
2018-08-22T06:41:20.163Z,0.08
2018-08-22T06:41:55.868Z,0.00
2018-08-22T06:42:31.178Z,0.00
2018-08-22T06:43:06.597Z,0.72
2018-08-22T06:43:41.849Z,0.00
2018-08-22T06:44:17.075Z,0.08
2018-08-22T06:44:52.148Z,0.00
2018-08-22T06:45:27.664Z,0.00
2018-08-22T06:46:03.070Z,0.16
2018-08-22T06:46:38.485Z,1.36
2018-08-22T06:47:13.788Z,0.08
2018-08-22T06:47:49.313Z,0.32
2018-08-22T06:48:25.412Z,0.00
2018-08-22T06:49:00.856Z,0.64
2018-08-22T06:49:35.990Z,0.00
2018-08-22T06:50:11.588Z,0.00
2018-08-22T06:50:47.246Z,0.40
2018-08-22T06:51:22.895Z,0.24
2018-08-22T06:51:58.321Z,0.56
2018-08-22T06:52:33.866Z,0.56
2018-08-22T06:53:09.344Z,1.52
2018-08-22T06:53:45.337Z,1.20
2018-08-22T06:54:20.872Z,0.16
2018-08-22T06:54:56.571Z,0.80
2018-08-22T06:55:32.162Z,0.00
2018-08-22T06:56:08.023Z,0.00
2018-08-22T06:56:43.684Z,0.48
2018-08-22T06:57:19.598Z,0.08
2018-08-22T06:57:55.535Z,0.64
2018-08-22T06:58:30.633Z,1.36
2018-08-22T06:59:06.263Z,0.24
2018-08-22T06:59:42.265Z,0.08
2018-08-22T07:00:17.892Z,0.24
2018-08-22T07:00:53.524Z,0.08
2018-08-22T07:01:29.048Z,0.00
2018-08-22T07:02:04.522Z,1.60
2018-08-22T07:02:40.166Z,0.16
2018-08-22T07:03:15.938Z,0.16
2018-08-22T07:03:51.395Z,0.88
2018-08-22T07:04:26.821Z,1.12
2018-08-22T07:05:02.537Z,0.24
2018-08-22T07:05:38.050Z,1.20
2018-08-22T07:06:13.798Z,2.56
2018-08-22T07:06:49.355Z,1.20
2018-08-22T07:07:24.862Z,0.88
2018-08-22T07:08:00.978Z,1.52
2018-08-22T07:08:36.558Z,1.52
2018-08-22T07:09:12.101Z,1.68
2018-08-22T07:09:47.553Z,1.28
2018-08-22T07:10:23.164Z,0.48
2018-08-22T07:10:58.626Z,0.16
2018-08-22T07:11:34.219Z,0.00
2018-08-22T07:12:09.836Z,0.32
2018-08-22T07:12:45.399Z,0.32
2018-08-22T07:13:20.633Z,2.16
2018-08-22T07:13:56.260Z,1.04
2018-08-22T07:14:31.876Z,0.32
2018-08-22T07:15:07.334Z,0.24
2018-08-22T07:15:42.999Z,1.92
2018-08-22T07:16:18.655Z,0.88
2018-08-22T07:16:54.159Z,2.56
2018-08-22T07:17:30.056Z,0.88
2018-08-22T07:18:05.835Z,0.16
2018-08-22T07:18:41.205Z,1.28
2018-08-22T07:19:16.829Z,1.60
2018-08-22T07:19:52.377Z,2.08
2018-08-22T07:20:28.067Z,3.36
2018-08-22T07:21:03.669Z,3.52
2018-08-22T07:21:38.984Z,2.40
2018-08-22T07:22:14.602Z,2.00
2018-08-22T07:22:50.030Z,1.12
2018-08-22T07:23:25.563Z,0.88
2018-08-22T07:24:01.215Z,0.40
2018-08-22T07:24:36.712Z,0.40
2018-08-22T07:25:12.262Z,1.28
2018-08-22T07:25:48.348Z,2.56
2018-08-22T07:26:24.107Z,2.72
2018-08-22T07:27:00.223Z,2.80
2018-08-22T07:27:36.022Z,1.44
2018-08-22T07:28:11.367Z,0.88
2018-08-22T07:28:47.033Z,3.52
2018-08-22T07:29:22.784Z,2.72
2018-08-22T07:29:58.639Z,2.32
2018-08-22T07:30:34.233Z,1.20
2018-08-22T07:31:09.641Z,1.12
2018-08-22T07:31:45.190Z,0.48
2018-08-22T07:32:20.888Z,0.00
2018-08-22T07:32:56.534Z,0.72
2018-08-22T07:33:31.977Z,0.16
2018-08-22T07:34:07.195Z,0.00
2018-08-22T07:34:42.835Z,0.24
2018-08-22T07:35:18.156Z,0.56
2018-08-22T07:35:53.617Z,0.16
2018-08-22T07:36:28.840Z,2.08
2018-08-22T07:37:04.465Z,0.96
2018-08-22T07:37:40.009Z,0.08
2018-08-22T07:38:15.658Z,1.20
2018-08-22T07:38:51.089Z,0.16
2018-08-22T07:39:26.300Z,0.24
2018-08-22T07:40:01.699Z,1.84
2018-08-22T07:40:37.336Z,1.76
2018-08-22T07:41:12.865Z,0.16
2018-08-22T07:41:48.288Z,0.00
2018-08-22T07:42:23.577Z,0.72
2018-08-22T07:42:58.872Z,0.16
2018-08-22T07:43:34.501Z,0.80
2018-08-22T07:44:09.947Z,0.00
2018-08-22T07:44:45.066Z,0.00
2018-08-22T07:45:20.690Z,0.00
2018-08-22T07:45:56.161Z,0.00
2018-08-22T07:46:31.459Z,0.00
2018-08-22T07:47:06.826Z,0.24
2018-08-22T07:47:42.358Z,0.16
2018-08-22T07:48:17.983Z,0.80
2018-08-22T07:48:53.528Z,0.16
2018-08-22T07:49:28.731Z,2.08
2018-08-22T07:50:04.194Z,0.08
2018-08-22T07:50:39.567Z,0.80
2018-08-22T07:51:15.460Z,1.60
2018-08-22T07:51:50.993Z,1.28
2018-08-22T07:52:26.480Z,2.24
2018-08-22T07:53:01.824Z,0.64
2018-08-22T07:53:37.052Z,0.88
2018-08-22T07:54:12.377Z,1.76
2018-08-22T07:54:48.050Z,0.80
2018-08-22T07:55:23.297Z,0.64
2018-08-22T07:55:58.675Z,0.16
2018-08-22T07:56:33.960Z,0.16
2018-08-22T07:57:09.247Z,1.92
2018-08-22T07:57:44.722Z,3.28
2018-08-22T07:58:20.496Z,3.44
2018-08-22T07:58:55.964Z,6.00
2018-08-22T07:59:31.209Z,3.52
2018-08-22T08:00:06.672Z,2.96
2018-08-22T08:00:41.765Z,3.20
2018-08-22T08:01:17.300Z,2.08
2018-08-22T08:01:52.659Z,0.56
2018-08-22T08:02:28.095Z,0.48
2018-08-22T08:03:03.983Z,2.24
2018-08-22T08:03:39.606Z,4.00
2018-08-22T08:04:15.247Z,0.80
2018-08-22T08:04:50.890Z,2.24
2018-08-22T08:05:26.477Z,4.64
2018-08-22T08:06:02.165Z,4.48
2018-08-22T08:06:37.486Z,6.00
2018-08-22T08:07:12.900Z,4.96
2018-08-22T08:07:48.322Z,3.92
2018-08-22T08:08:23.742Z,4.56
2018-08-22T08:08:59.112Z,6.00
2018-08-22T08:09:34.474Z,3.60
2018-08-22T08:10:09.685Z,2.56
2018-08-22T08:10:45.042Z,3.68
2018-08-22T08:11:20.342Z,2.24
2018-08-22T08:11:55.988Z,1.68
2018-08-22T08:12:31.373Z,8.64
2018-08-22T08:13:06.795Z,3.68
2018-08-22T08:13:42.484Z,2.80
2018-08-22T08:14:17.785Z,3.04
2018-08-22T08:14:53.123Z,4.80
2018-08-22T08:15:28.360Z,2.96
2018-08-22T08:16:03.793Z,1.52
2018-08-22T08:16:39.587Z,2.96
2018-08-22T08:17:15.233Z,1.68
2018-08-22T08:17:50.476Z,1.92
2018-08-22T08:18:25.786Z,2.40
2018-08-22T08:19:01.239Z,4.88
2018-08-22T08:19:36.642Z,5.60
2018-08-22T08:20:12.081Z,2.64
2018-08-22T08:20:47.623Z,2.40
2018-08-22T08:21:23.031Z,6.00
2018-08-22T08:21:58.539Z,3.12
2018-08-22T08:22:33.863Z,4.08
2018-08-22T08:23:09.389Z,4.00
2018-08-22T08:23:44.867Z,3.84
2018-08-22T08:24:20.184Z,3.12
2018-08-22T08:24:55.654Z,0.96
2018-08-22T08:25:30.967Z,2.80
2018-08-22T08:26:06.500Z,4.96
2018-08-22T08:26:41.931Z,1.60
2018-08-22T08:27:17.869Z,1.28
2018-08-22T08:27:53.126Z,1.20
2018-08-22T08:28:28.301Z,3.12
2018-08-22T08:29:03.362Z,0.32
2018-08-22T08:29:38.776Z,1.76
2018-08-22T08:30:14.307Z,1.92
2018-08-22T08:30:49.623Z,1.04
2018-08-22T08:31:24.743Z,0.64
2018-08-22T08:32:00.069Z,0.64
2018-08-22T08:32:35.463Z,0.88
2018-08-22T08:33:11.094Z,1.20
2018-08-22T08:33:46.648Z,2.72
2018-08-22T08:34:22.354Z,2.32
2018-08-22T08:34:57.777Z,1.44
2018-08-22T08:35:33.107Z,0.64
2018-08-22T08:36:08.697Z,0.16
2018-08-22T08:36:44.100Z,0.48
2018-08-22T08:37:19.566Z,3.84
2018-08-22T08:37:55.076Z,2.88
2018-08-22T08:38:30.688Z,0.96
2018-08-22T08:39:05.914Z,2.00
2018-08-22T08:39:41.226Z,3.04
2018-08-22T08:40:16.456Z,3.92
2018-08-22T08:40:51.794Z,3.04
2018-08-22T08:41:27.162Z,1.92
2018-08-22T08:42:02.675Z,1.60
2018-08-22T08:42:37.899Z,0.80
2018-08-22T08:43:13.348Z,0.48
2018-08-22T08:43:48.762Z,1.68
2018-08-22T08:44:23.889Z,0.56
2018-08-22T08:44:59.418Z,0.80
2018-08-22T08:45:34.871Z,0.88
2018-08-22T08:46:10.202Z,2.32
2018-08-22T08:46:45.920Z,1.36
2018-08-22T08:47:21.132Z,2.40
2018-08-22T08:47:56.494Z,4.16
2018-08-22T08:48:31.919Z,1.28
2018-08-22T08:49:07.553Z,0.96
2018-08-22T08:49:42.916Z,1.44
2018-08-22T08:50:18.433Z,2.80
2018-08-22T08:50:53.991Z,1.12
2018-08-22T08:51:29.296Z,0.40
2018-08-22T08:52:04.726Z,0.48
2018-08-22T08:52:40.057Z,1.52
2018-08-22T08:53:15.615Z,0.96
2018-08-22T08:53:51.176Z,0.40
2018-08-22T08:54:26.920Z,0.32
2018-08-22T08:55:02.168Z,0.24
2018-08-22T08:55:37.470Z,3.68
2018-08-22T08:56:12.719Z,1.44
2018-08-22T08:56:48.051Z,2.40
2018-08-22T08:57:23.782Z,2.72
2018-08-22T08:57:59.049Z,2.96
2018-08-22T08:58:34.723Z,3.12
2018-08-22T08:59:10.094Z,2.00
2018-08-22T08:59:45.561Z,2.24
2018-08-22T09:00:20.859Z,2.16
2018-08-22T09:00:56.477Z,4.32
2018-08-22T09:01:31.687Z,3.84
2018-08-22T09:02:07.026Z,3.60
2018-08-22T09:02:42.443Z,4.08
2018-08-22T09:03:17.917Z,2.64
2018-08-22T09:03:53.295Z,1.92
2018-08-22T09:04:28.679Z,2.40
2018-08-22T09:05:04.242Z,2.00
2018-08-22T09:05:39.748Z,1.44
2018-08-22T09:06:15.097Z,0.80
2018-08-22T09:06:50.435Z,0.56
2018-08-22T09:07:25.777Z,2.72
2018-08-22T09:08:00.984Z,2.00
2018-08-22T09:08:36.372Z,0.96
2018-08-22T09:09:11.844Z,2.96
2018-08-22T09:09:47.151Z,3.92
2018-08-22T09:10:22.389Z,2.08
2018-08-22T09:10:57.912Z,2.32
2018-08-22T09:11:33.332Z,3.76
2018-08-22T09:12:09.123Z,3.44
2018-08-22T09:12:44.478Z,1.36
2018-08-22T09:13:19.817Z,5.12
2018-08-22T09:13:55.061Z,3.84
2018-08-22T09:14:30.404Z,2.88
2018-08-22T09:15:05.846Z,4.48
2018-08-22T09:15:41.141Z,2.48
2018-08-22T09:16:16.353Z,1.44
2018-08-22T09:16:51.970Z,1.20
2018-08-22T09:17:27.131Z,0.40
2018-08-22T09:18:02.482Z,1.68
2018-08-22T09:18:37.902Z,1.44
2018-08-22T09:19:13.225Z,3.04
2018-08-22T09:19:48.567Z,1.44
2018-08-22T09:20:23.845Z,1.52
2018-08-22T09:20:59.122Z,4.24
2018-08-22T09:21:34.511Z,2.88
2018-08-22T09:22:09.962Z,1.60
2018-08-22T09:22:45.466Z,3.92
2018-08-22T09:23:21.507Z,4.56
2018-08-22T09:23:56.864Z,2.00
2018-08-22T09:24:32.401Z,3.28
2018-08-22T09:25:07.775Z,1.60
2018-08-22T09:25:43.416Z,2.48
2018-08-22T09:26:18.662Z,1.20
2018-08-22T09:26:53.888Z,5.20
2018-08-22T09:27:29.113Z,2.48
2018-08-22T09:28:04.451Z,2.00
2018-08-22T09:28:39.925Z,1.76
2018-08-22T09:29:15.464Z,0.88
2018-08-22T09:29:50.914Z,0.64
2018-08-22T09:30:26.539Z,1.44
2018-08-22T09:31:01.902Z,8.56
2018-08-22T09:31:37.123Z,7.04
2018-08-22T09:32:12.558Z,2.96
2018-08-22T09:32:47.806Z,1.44
2018-08-22T09:33:23.035Z,0.24
2018-08-22T09:33:58.301Z,1.76
2018-08-22T09:34:33.771Z,1.12
2018-08-22T09:35:09.126Z,0.56
2018-08-22T09:35:44.349Z,0.16
2018-08-22T09:36:19.705Z,0.64
2018-08-22T09:36:54.992Z,1.76
2018-08-22T09:37:30.483Z,0.40
2018-08-22T09:38:05.809Z,2.48
2018-08-22T09:38:40.908Z,2.88
2018-08-22T09:39:16.304Z,5.28
2018-08-22T09:39:51.555Z,1.60
2018-08-22T09:40:26.942Z,0.80
2018-08-22T09:41:02.390Z,1.20
2018-08-22T09:41:37.615Z,1.44
2018-08-22T09:42:12.897Z,0.40
2018-08-22T09:42:48.625Z,1.36
2018-08-22T09:43:24.255Z,2.24
2018-08-22T09:43:59.682Z,0.88
2018-08-22T09:44:34.895Z,0.48
2018-08-22T09:45:10.043Z,0.24
2018-08-22T09:45:45.475Z,0.40
2018-08-22T09:46:21.133Z,2.96
2018-08-22T09:46:56.580Z,0.64
2018-08-22T09:47:31.891Z,0.80
2018-08-22T09:48:07.223Z,3.36
2018-08-22T09:48:42.735Z,0.56
2018-08-22T09:49:18.003Z,0.56
2018-08-22T09:49:53.543Z,2.16
2018-08-22T09:50:28.799Z,5.36
2018-08-22T09:51:03.932Z,0.88
2018-08-22T09:51:39.156Z,2.16
2018-08-22T09:52:14.280Z,3.36
2018-08-22T09:52:49.679Z,3.04
2018-08-22T09:53:24.700Z,1.68
2018-08-22T09:54:00.265Z,1.84
2018-08-22T09:54:35.882Z,4.56
2018-08-22T09:55:11.466Z,5.12
2018-08-22T09:55:46.967Z,4.24
2018-08-22T09:56:22.635Z,7.36
2018-08-22T09:56:57.805Z,0.96
2018-08-22T09:57:33.118Z,2.56
2018-08-22T09:58:08.681Z,0.56
2018-08-22T09:58:43.795Z,2.24
2018-08-22T09:59:19.348Z,1.28
2018-08-22T09:59:55.133Z,0.48
2018-08-22T10:00:30.599Z,0.80
2018-08-22T10:01:06.022Z,0.16
2018-08-22T10:01:41.349Z,0.24
2018-08-22T10:02:16.764Z,0.88
2018-08-22T10:02:52.105Z,0.48
2018-08-22T10:03:27.565Z,1.20
2018-08-22T10:04:02.796Z,2.24
2018-08-22T10:04:38.244Z,3.60
2018-08-22T10:05:13.620Z,1.84
2018-08-22T10:05:48.839Z,1.84
2018-08-22T10:06:24.293Z,0.88
2018-08-22T10:06:59.834Z,1.20
2018-08-22T10:07:35.508Z,0.40
2018-08-22T10:08:11.131Z,1.36
2018-08-22T10:08:46.540Z,1.52
2018-08-22T10:09:21.869Z,3.12
2018-08-22T10:09:57.381Z,1.84
2018-08-22T10:10:32.821Z,3.92
2018-08-22T10:11:08.362Z,2.32
2018-08-22T10:11:43.613Z,1.76
2018-08-22T10:12:18.948Z,4.64
2018-08-22T10:12:54.279Z,2.32
2018-08-22T10:13:29.831Z,6.88
2018-08-22T10:14:05.273Z,8.88
2018-08-22T10:14:40.470Z,3.20
2018-08-22T10:15:15.739Z,1.12
2018-08-22T10:15:51.058Z,1.12
2018-08-22T10:16:26.400Z,1.20
2018-08-22T10:17:01.804Z,0.72
2018-08-22T10:17:37.170Z,0.72
2018-08-22T10:18:12.640Z,3.12
2018-08-22T10:18:47.971Z,0.96
2018-08-22T10:19:23.307Z,2.56
2018-08-22T10:19:58.643Z,2.32
2018-08-22T10:20:34.139Z,3.52
2018-08-22T10:21:09.496Z,0.96
2018-08-22T10:21:44.693Z,0.88
2018-08-22T10:22:20.144Z,0.24
2018-08-22T10:22:55.662Z,0.32
2018-08-22T10:23:31.302Z,1.84
2018-08-22T10:24:06.639Z,2.88
2018-08-22T10:24:41.848Z,5.60
2018-08-22T10:25:17.417Z,8.64
2018-08-22T10:25:52.823Z,6.48
2018-08-22T10:26:28.476Z,3.76
2018-08-22T10:27:04.282Z,5.04
2018-08-22T10:27:39.369Z,4.48
2018-08-22T10:28:14.923Z,4.64
2018-08-22T10:28:50.560Z,4.16
2018-08-22T10:29:25.926Z,1.60
2018-08-22T10:30:01.687Z,0.48
2018-08-22T10:30:37.276Z,3.60
2018-08-22T10:31:12.830Z,1.84
2018-08-22T10:31:48.179Z,3.52
2018-08-22T10:32:23.447Z,1.68
2018-08-22T10:32:58.729Z,3.12
2018-08-22T10:33:34.127Z,7.28
2018-08-22T10:34:09.593Z,1.28
2018-08-22T10:34:44.811Z,4.08
2018-08-22T10:35:20.169Z,2.56
2018-08-22T10:35:55.587Z,6.08
2018-08-22T10:36:31.139Z,5.04
2018-08-22T10:37:06.367Z,6.88
2018-08-22T10:37:41.665Z,5.68
2018-08-22T10:38:17.350Z,5.44
2018-08-22T10:38:53.147Z,5.12
2018-08-22T10:39:28.609Z,2.96
2018-08-22T10:40:03.694Z,5.44
2018-08-22T10:40:38.847Z,6.72
2018-08-22T10:41:14.080Z,1.68
2018-08-22T10:41:49.620Z,2.00
2018-08-22T10:42:25.188Z,3.28
2018-08-22T10:43:00.414Z,3.68
2018-08-22T10:43:35.760Z,3.52
2018-08-22T10:44:10.804Z,2.24
2018-08-22T10:44:46.435Z,1.52
2018-08-22T10:45:22.707Z,0.00
2018-08-22T10:45:57.924Z,0.24
2018-08-22T10:46:33.173Z,0.08
2018-08-22T10:47:08.623Z,0.32
2018-08-22T10:47:44.155Z,0.16
2018-08-22T10:48:19.423Z,0.96
2018-08-22T10:48:54.525Z,7.36
2018-08-22T10:49:29.999Z,6.88
2018-08-22T10:50:05.542Z,3.12
2018-08-22T10:50:40.841Z,5.12
2018-08-22T10:51:15.841Z,6.48
2018-08-22T10:51:51.375Z,2.64
2018-08-22T10:52:27.051Z,5.36
2018-08-22T10:53:02.281Z,6.32
2018-08-22T10:53:37.997Z,2.00
2018-08-22T10:54:13.147Z,0.24
2018-08-22T10:54:48.088Z,3.36
2018-08-22T10:55:23.552Z,0.24
2018-08-22T10:55:59.113Z,0.40
2018-08-22T10:56:34.439Z,6.40
2018-08-22T10:57:09.959Z,9.92
2018-08-22T10:57:45.380Z,3.68
2018-08-22T10:58:20.623Z,12.49
2018-08-22T10:58:56.066Z,9.44
2018-08-22T10:59:31.535Z,5.76
2018-08-22T11:00:06.738Z,3.76
2018-08-22T11:00:42.394Z,4.64
2018-08-22T11:01:17.624Z,7.04
2018-08-22T11:01:52.866Z,5.36
2018-08-22T11:02:28.305Z,3.36
2018-08-22T11:03:03.800Z,2.80
2018-08-22T11:03:39.242Z,2.48
2018-08-22T11:04:14.995Z,2.88
2018-08-22T11:04:50.226Z,2.00
2018-08-22T11:05:25.777Z,0.48
2018-08-22T11:06:01.117Z,1.12
2018-08-22T11:06:36.482Z,1.44
2018-08-22T11:07:12.021Z,4.24
2018-08-22T11:07:47.357Z,5.12
2018-08-22T11:08:22.823Z,3.04
2018-08-22T11:08:57.950Z,2.08
2018-08-22T11:09:33.305Z,0.16
2018-08-22T11:10:08.712Z,4.08
2018-08-22T11:10:44.415Z,3.20
2018-08-22T11:11:19.744Z,5.68
2018-08-22T11:11:54.858Z,3.12
2018-08-22T11:12:30.609Z,0.80
2018-08-22T11:13:06.338Z,0.32
2018-08-22T11:13:41.645Z,0.72
2018-08-22T11:14:16.881Z,2.24
2018-08-22T11:14:52.475Z,0.80
2018-08-22T11:15:28.252Z,3.68
2018-08-22T11:16:03.910Z,1.52
2018-08-22T11:16:39.317Z,2.32
2018-08-22T11:17:14.753Z,2.08
2018-08-22T11:17:50.407Z,2.72
2018-08-22T11:18:25.753Z,2.96
2018-08-22T11:19:01.291Z,8.00
2018-08-22T11:19:36.785Z,5.84
2018-08-22T11:20:11.896Z,8.80
2018-08-22T11:20:47.287Z,8.24
2018-08-22T11:21:22.829Z,3.20
2018-08-22T11:21:58.152Z,1.84
2018-08-22T11:22:33.615Z,2.64
2018-08-22T11:23:08.988Z,3.28
2018-08-22T11:23:44.317Z,3.92
2018-08-22T11:24:19.564Z,6.00
2018-08-22T11:24:55.007Z,3.92
2018-08-22T11:25:30.741Z,3.44
2018-08-22T11:26:06.283Z,5.20
2018-08-22T11:26:42.059Z,4.24
2018-08-22T11:27:17.388Z,2.64
2018-08-22T11:27:52.834Z,3.84
2018-08-22T11:28:28.268Z,2.00
2018-08-22T11:29:03.561Z,0.08
2018-08-22T11:29:39.221Z,1.60
2018-08-22T11:30:14.472Z,1.20
2018-08-22T11:30:49.882Z,2.00
2018-08-22T11:31:25.031Z,1.20
2018-08-22T11:32:00.342Z,0.80
2018-08-22T11:32:36.085Z,1.84
2018-08-22T11:33:11.803Z,2.08
2018-08-22T11:33:47.222Z,0.24
2018-08-22T11:34:22.392Z,2.08
2018-08-22T11:34:57.514Z,3.20
2018-08-22T11:35:32.853Z,2.72
2018-08-22T11:36:08.094Z,3.92
2018-08-22T11:36:43.223Z,2.80
2018-08-22T11:37:18.813Z,6.16
2018-08-22T11:37:54.385Z,9.44
2018-08-22T11:38:29.743Z,6.72
2018-08-22T11:39:05.150Z,4.80
2018-08-22T11:39:40.706Z,6.08
2018-08-22T11:40:16.233Z,5.84
2018-08-22T11:40:51.669Z,4.40
2018-08-22T11:41:26.967Z,2.72
2018-08-22T11:42:02.957Z,5.04
2018-08-22T11:42:38.388Z,9.04
2018-08-22T11:43:13.839Z,8.08
2018-08-22T11:43:49.256Z,6.00
2018-08-22T11:44:24.514Z,1.84
2018-08-22T11:45:00.045Z,2.96
2018-08-22T11:45:35.504Z,2.24
2018-08-22T11:46:10.743Z,2.24
2018-08-22T11:46:46.110Z,1.36
2018-08-22T11:47:21.500Z,1.04
2018-08-22T11:47:56.924Z,0.32
2018-08-22T11:48:32.178Z,2.24
2018-08-22T11:49:07.546Z,1.92
2018-08-22T11:49:43.046Z,2.48
2018-08-22T11:50:18.256Z,2.32
2018-08-22T11:50:54.705Z,2.72
2018-08-22T11:51:30.301Z,3.44
2018-08-22T11:52:05.520Z,1.04
2018-08-22T11:52:40.942Z,1.52
2018-08-22T11:53:16.266Z,0.56
2018-08-22T11:53:51.491Z,0.32
2018-08-22T11:54:27.153Z,0.16
2018-08-22T11:55:02.597Z,0.56
2018-08-22T11:55:37.866Z,0.08
2018-08-22T11:56:13.223Z,0.24
2018-08-22T11:56:48.667Z,0.56
2018-08-22T11:57:23.925Z,0.32
2018-08-22T11:58:00.150Z,2.40
2018-08-22T11:58:35.510Z,0.16
2018-08-22T11:59:10.763Z,0.96
2018-08-22T11:59:46.092Z,1.44
2018-08-22T12:00:21.513Z,5.36
2018-08-22T12:00:57.133Z,2.56
2018-08-22T12:01:32.723Z,0.40
2018-08-22T12:02:08.266Z,6.56
2018-08-22T12:02:43.809Z,3.92
2018-08-22T12:03:19.220Z,4.00
2018-08-22T12:03:54.446Z,3.84
2018-08-22T12:04:30.003Z,3.04
2018-08-22T12:05:05.324Z,6.96
2018-08-22T12:05:40.949Z,9.36
2018-08-22T12:06:16.123Z,5.36
2018-08-22T12:06:51.668Z,2.64
2018-08-22T12:07:27.341Z,2.96
2018-08-22T12:08:02.660Z,1.84
2018-08-22T12:08:38.191Z,8.40
2018-08-22T12:09:13.421Z,7.04
2018-08-22T12:09:48.556Z,3.20
2018-08-22T12:10:23.914Z,1.20
2018-08-22T12:10:59.501Z,2.16
2018-08-22T12:11:34.803Z,3.52
2018-08-22T12:12:10.146Z,3.04
2018-08-22T12:12:45.422Z,1.20
2018-08-22T12:13:20.664Z,5.68
2018-08-22T12:13:56.306Z,4.24
2018-08-22T12:14:31.451Z,7.68
2018-08-22T12:15:06.873Z,3.92
2018-08-22T12:15:42.709Z,8.48
2018-08-22T12:16:17.949Z,5.52
2018-08-22T12:16:53.434Z,8.00
2018-08-22T12:17:28.818Z,4.64
2018-08-22T12:18:04.175Z,3.12
2018-08-22T12:18:39.446Z,1.20
2018-08-22T12:19:14.959Z,1.52
2018-08-22T12:19:50.715Z,3.36
2018-08-22T12:20:26.072Z,2.00
2018-08-22T12:21:01.391Z,4.64
2018-08-22T12:21:36.706Z,2.32
2018-08-22T12:22:11.735Z,3.84
2018-08-22T12:22:47.181Z,1.44
2018-08-22T12:23:22.523Z,2.88
2018-08-22T12:23:57.967Z,2.32
2018-08-22T12:24:33.295Z,1.84
2018-08-22T12:25:08.832Z,0.96
2018-08-22T12:25:44.096Z,0.80
2018-08-22T12:26:19.600Z,2.48
2018-08-22T12:26:55.070Z,2.40
2018-08-22T12:27:30.283Z,4.08
2018-08-22T12:28:05.724Z,6.72
2018-08-22T12:28:41.095Z,4.32
2018-08-22T12:29:16.669Z,2.64
2018-08-22T12:29:52.290Z,4.64
2018-08-22T12:30:27.801Z,4.48
2018-08-22T12:31:03.456Z,12.73
2018-08-22T12:31:38.818Z,10.57
2018-08-22T12:32:14.034Z,3.28
2018-08-22T12:32:49.782Z,0.80
2018-08-22T12:33:25.498Z,2.40
2018-08-22T12:34:00.840Z,2.08
2018-08-22T12:34:36.168Z,2.80
2018-08-22T12:35:11.716Z,3.20
2018-08-22T12:35:47.151Z,4.32
2018-08-22T12:36:22.788Z,4.08
2018-08-22T12:36:57.963Z,7.36
2018-08-22T12:37:33.411Z,5.36
2018-08-22T12:38:08.866Z,9.36
2018-08-22T12:38:44.117Z,8.00
2018-08-22T12:39:19.209Z,9.12
2018-08-22T12:39:54.554Z,4.56
2018-08-22T12:40:30.070Z,10.89
2018-08-22T12:41:05.329Z,6.16
2018-08-22T12:41:40.731Z,4.24
2018-08-22T12:42:16.004Z,3.60
2018-08-22T12:42:51.456Z,8.48
2018-08-22T12:43:26.887Z,6.88
2018-08-22T12:44:02.329Z,1.68
2018-08-22T12:44:37.879Z,2.64
2018-08-22T12:45:12.960Z,8.64
2018-08-22T12:45:48.503Z,11.37
2018-08-22T12:46:23.611Z,8.48
2018-08-22T12:46:58.930Z,8.48
2018-08-22T12:47:34.415Z,6.40
2018-08-22T12:48:09.856Z,3.12
2018-08-22T12:48:45.200Z,1.20
2018-08-22T12:49:21.021Z,1.60
2018-08-22T12:49:56.450Z,1.76
2018-08-22T12:50:31.749Z,1.36
2018-08-22T12:51:07.216Z,3.92
2018-08-22T12:51:42.542Z,1.20
2018-08-22T12:52:17.923Z,0.16
2018-08-22T12:52:53.287Z,0.48
2018-08-22T12:53:28.788Z,0.40
2018-08-22T12:54:04.240Z,1.28
2018-08-22T12:54:39.660Z,2.32
2018-08-22T12:55:15.191Z,1.28
2018-08-22T12:55:50.637Z,0.96
2018-08-22T12:56:25.961Z,4.56
2018-08-22T12:57:01.860Z,1.84
2018-08-22T12:57:37.398Z,3.44
2018-08-22T12:58:12.875Z,4.08
2018-08-22T12:58:48.681Z,6.48
2018-08-22T12:59:24.012Z,3.60
2018-08-22T12:59:59.363Z,7.76
2018-08-22T13:00:34.585Z,5.52
2018-08-22T13:01:10.152Z,3.20
2018-08-22T13:01:45.578Z,3.44
2018-08-22T13:02:20.798Z,2.24
2018-08-22T13:02:56.053Z,3.92
2018-08-22T13:03:31.390Z,7.28
2018-08-22T13:04:06.637Z,6.80
2018-08-22T13:04:42.408Z,5.92
2018-08-22T13:05:17.693Z,4.96
2018-08-22T13:05:53.023Z,6.32
2018-08-22T13:06:28.450Z,5.12
2018-08-22T13:07:04.011Z,6.16
2018-08-22T13:07:39.334Z,2.88
2018-08-22T13:08:14.568Z,2.08
2018-08-22T13:08:49.889Z,3.52
2018-08-22T13:09:25.209Z,4.80
2018-08-22T13:10:00.764Z,2.88
2018-08-22T13:10:36.188Z,3.36
2018-08-22T13:11:11.571Z,5.36
2018-08-22T13:11:47.153Z,2.96
2018-08-22T13:12:22.612Z,3.44
2018-08-22T13:12:57.951Z,1.04
2018-08-22T13:13:33.367Z,6.80
2018-08-22T13:14:08.605Z,4.56
2018-08-22T13:14:44.026Z,5.76
2018-08-22T13:15:19.241Z,7.92
2018-08-22T13:15:55.373Z,8.72
2018-08-22T13:16:30.893Z,4.40
2018-08-22T13:17:06.235Z,9.76
2018-08-22T13:17:41.797Z,9.84
2018-08-22T13:18:17.278Z,6.32
2018-08-22T13:18:52.810Z,6.88
2018-08-22T13:19:28.191Z,3.84
2018-08-22T13:20:03.244Z,4.56
2018-08-22T13:20:38.467Z,8.48
2018-08-22T13:21:13.785Z,6.88
2018-08-22T13:21:49.007Z,0.96
2018-08-22T13:22:24.163Z,0.32
2018-08-22T13:22:59.304Z,1.36
2018-08-22T13:23:34.746Z,6.64
2018-08-22T13:24:10.430Z,4.56
2018-08-22T13:24:45.619Z,9.84
2018-08-22T13:25:20.976Z,7.12
2018-08-22T13:25:56.421Z,4.64
2018-08-22T13:26:31.928Z,3.12
2018-08-22T13:27:07.122Z,1.92
2018-08-22T13:27:42.647Z,3.60
2018-08-22T13:28:17.862Z,1.76
2018-08-22T13:28:53.180Z,3.44
2018-08-22T13:29:28.610Z,2.88
2018-08-22T13:30:03.880Z,2.24
2018-08-22T13:30:39.104Z,2.24
2018-08-22T13:31:14.551Z,2.08
2018-08-22T13:31:49.874Z,0.08
2018-08-22T13:32:25.277Z,1.60
2018-08-22T13:33:00.744Z,1.60
2018-08-22T13:33:35.855Z,5.20
2018-08-22T13:34:11.113Z,2.48
2018-08-22T13:34:46.416Z,4.48
2018-08-22T13:35:21.662Z,2.56
2018-08-22T13:35:56.884Z,0.88
2018-08-22T13:36:32.293Z,4.40
2018-08-22T13:37:07.732Z,4.56
2018-08-22T13:37:43.223Z,1.12
2018-08-22T13:38:18.619Z,0.08
2018-08-22T13:38:53.897Z,0.80
2018-08-22T13:39:29.346Z,0.24
2018-08-22T13:40:04.915Z,1.28
2018-08-22T13:40:40.007Z,2.48
2018-08-22T13:41:15.449Z,0.48
2018-08-22T13:41:50.662Z,3.20
2018-08-22T13:42:26.090Z,5.92
2018-08-22T13:43:01.485Z,7.12
2018-08-22T13:43:36.928Z,7.76
2018-08-22T13:44:12.374Z,11.13
2018-08-22T13:44:47.706Z,7.36
2018-08-22T13:45:23.382Z,4.80
2018-08-22T13:45:58.633Z,7.12
2018-08-22T13:46:33.955Z,3.36
2018-08-22T13:47:09.394Z,4.00
2018-08-22T13:47:44.733Z,4.56
2018-08-22T13:48:20.168Z,5.52
2018-08-22T13:48:55.652Z,5.52
2018-08-22T13:49:31.048Z,6.24
2018-08-22T13:50:06.543Z,4.72
2018-08-22T13:50:41.715Z,0.96
2018-08-22T13:51:16.924Z,2.16
2018-08-22T13:51:52.196Z,1.60
2018-08-22T13:52:27.636Z,5.20
2018-08-22T13:53:03.037Z,1.92
2018-08-22T13:53:38.613Z,1.84
2018-08-22T13:54:14.254Z,8.72
2018-08-22T13:54:49.752Z,11.37